sensor_id;sensor_type;location;lat;lon;timestamp;pressure;altitude;pressure_sealevel;temperature;humidity
64368;BME280;50692;53.314;-6.300;2023-05-08T00:01:22;100926.81;;;16.22;85.05
64368;BME280;50692;53.314;-6.300;2023-05-08T00:04:07;100919.56;;;16.24;84.87
64368;BME280;50692;53.314;-6.300;2023-05-08T00:06:53;100917.66;;;16.13;85.97
64368;BME280;50692;53.314;-6.300;2023-05-08T00:09:39;100909.66;;;16.13;86.02
64368;BME280;50692;53.314;-6.300;2023-05-08T00:12:25;100906.56;;;16.19;85.81
64368;BME280;50692;53.314;-6.300;2023-05-08T00:15:11;100908.97;;;16.22;85.53
64368;BME280;50692;53.314;-6.300;2023-05-08T00:17:57;100902.78;;;16.22;85.76
64368;BME280;50692;53.314;-6.300;2023-05-08T00:20:43;100902.34;;;16.28;85.39
64368;BME280;50692;53.314;-6.300;2023-05-08T00:23:28;100902.00;;;16.33;85.21
64368;BME280;50692;53.314;-6.300;2023-05-08T00:26:14;100901.16;;;16.32;85.31
64368;BME280;50692;53.314;-6.300;2023-05-08T00:29:00;100897.78;;;16.30;85.38
64368;BME280;50692;53.314;-6.300;2023-05-08T00:31:46;100907.91;;;16.25;85.79
64368;BME280;50692;53.314;-6.300;2023-05-08T00:34:32;100886.47;;;16.26;85.98
64368;BME280;50692;53.314;-6.300;2023-05-08T00:37:18;100892.53;;;16.28;86.62
64368;BME280;50692;53.314;-6.300;2023-05-08T00:40:04;100893.06;;;16.34;86.78
64368;BME280;50692;53.314;-6.300;2023-05-08T00:42:50;100893.50;;;16.27;86.95
64368;BME280;50692;53.314;-6.300;2023-05-08T00:45:38;100886.56;;;16.25;87.27
64368;BME280;50692;53.314;-6.300;2023-05-08T00:48:27;100890.41;;;16.34;86.98
64368;BME280;50692;53.314;-6.300;2023-05-08T00:51:13;100878.84;;;16.33;86.44
64368;BME280;50692;53.314;-6.300;2023-05-08T00:53:59;100847.75;;;16.21;86.43
64368;BME280;50692;53.314;-6.300;2023-05-08T00:56:45;100887.78;;;16.45;86.55
64368;BME280;50692;53.314;-6.300;2023-05-08T00:59:32;100898.44;;;16.45;86.72
64368;BME280;50692;53.314;-6.300;2023-05-08T01:02:18;100892.97;;;16.46;86.57
64368;BME280;50692;53.314;-6.300;2023-05-08T01:05:05;100886.66;;;16.47;86.66
64368;BME280;50692;53.314;-6.300;2023-05-08T01:07:52;100887.78;;;16.45;86.84
64368;BME280;50692;53.314;-6.300;2023-05-08T01:10:46;100873.31;;;16.47;87.33
64368;BME280;50692;53.314;-6.300;2023-05-08T01:17:03;100845.69;;;16.48;87.42
64368;BME280;50692;53.314;-6.300;2023-05-08T01:32:25;100856.75;;;16.55;88.35
64368;BME280;50692;53.314;-6.300;2023-05-08T01:35:33;100855.66;;;16.58;88.41
64368;BME280;50692;53.314;-6.300;2023-05-08T01:38:32;100852.16;;;16.57;88.44
64368;BME280;50692;53.314;-6.300;2023-05-08T01:41:30;100848.75;;;16.55;88.73
64368;BME280;50692;53.314;-6.300;2023-05-08T01:44:20;100848.84;;;16.53;88.90
64368;BME280;50692;53.314;-6.300;2023-05-08T01:47:09;100850.69;;;16.53;89.45
64368;BME280;50692;53.314;-6.300;2023-05-08T01:50:12;100847.78;;;16.56;89.31
64368;BME280;50692;53.314;-6.300;2023-05-08T01:53:06;100846.09;;;16.55;89.45
64368;BME280;50692;53.314;-6.300;2023-05-08T01:55:57;100841.00;;;16.52;89.17
64368;BME280;50692;53.314;-6.300;2023-05-08T01:58:44;100845.84;;;16.58;89.31
64368;BME280;50692;53.314;-6.300;2023-05-08T02:01:32;100843.16;;;16.58;89.33
64368;BME280;50692;53.314;-6.300;2023-05-08T02:04:19;100853.97;;;16.57;89.43
64368;BME280;50692;53.314;-6.300;2023-05-08T02:07:06;100854.81;;;16.57;89.57
64368;BME280;50692;53.314;-6.300;2023-05-08T02:09:53;100847.78;;;16.56;90.53
64368;BME280;50692;53.314;-6.300;2023-05-08T02:12:40;100849.47;;;16.57;89.96
64368;BME280;50692;53.314;-6.300;2023-05-08T02:15:28;100840.47;;;16.47;90.02
64368;BME280;50692;53.314;-6.300;2023-05-08T02:18:17;100848.47;;;16.47;90.37
64368;BME280;50692;53.314;-6.300;2023-05-08T02:21:05;100851.03;;;16.48;90.51
64368;BME280;50692;53.314;-6.300;2023-05-08T02:23:55;100837.94;;;16.45;90.65
64368;BME280;50692;53.314;-6.300;2023-05-08T02:26:44;100843.13;;;16.47;90.45
64368;BME280;50692;53.314;-6.300;2023-05-08T02:29:31;100837.56;;;16.50;90.49
64368;BME280;50692;53.314;-6.300;2023-05-08T02:32:18;100837.22;;;16.54;90.19
64368;BME280;50692;53.314;-6.300;2023-05-08T02:35:05;100830.81;;;16.57;90.64
64368;BME280;50692;53.314;-6.300;2023-05-08T02:37:52;100836.50;;;16.52;90.33
64368;BME280;50692;53.314;-6.300;2023-05-08T02:40:45;100855.41;;;16.49;90.67
64368;BME280;50692;53.314;-6.300;2023-05-08T02:43:32;100806.91;;;16.20;90.85
64368;BME280;50692;53.314;-6.300;2023-05-08T02:46:22;100838.38;;;16.39;90.98
64368;BME280;50692;53.314;-6.300;2023-05-08T02:52:11;100816.25;;;16.26;91.72
64368;BME280;50692;53.314;-6.300;2023-05-08T02:55:41;100823.72;;;16.34;92.14
64368;BME280;50692;53.314;-6.300;2023-05-08T02:58:50;100844.88;;;16.24;92.52
64368;BME280;50692;53.314;-6.300;2023-05-08T03:01:46;100828.31;;;16.07;93.31
64368;BME280;50692;53.314;-6.300;2023-05-08T03:04:40;100828.03;;;15.99;93.56
64368;BME280;50692;53.314;-6.300;2023-05-08T03:07:31;100815.03;;;15.95;93.82
64368;BME280;50692;53.314;-6.300;2023-05-08T03:10:27;100830.19;;;15.94;93.92
64368;BME280;50692;53.314;-6.300;2023-05-08T03:13:15;100832.53;;;15.86;94.26
64368;BME280;50692;53.314;-6.300;2023-05-08T03:16:04;100821.38;;;15.81;94.78
64368;BME280;50692;53.314;-6.300;2023-05-08T03:19:01;100819.06;;;15.76;94.90
64368;BME280;50692;53.314;-6.300;2023-05-08T03:21:50;100821.94;;;15.73;94.19
64368;BME280;50692;53.314;-6.300;2023-05-08T03:24:39;100826.97;;;15.65;93.96
64368;BME280;50692;53.314;-6.300;2023-05-08T03:27:28;100819.63;;;15.69;93.56
64368;BME280;50692;53.314;-6.300;2023-05-08T03:30:15;100824.97;;;15.69;93.28
64368;BME280;50692;53.314;-6.300;2023-05-08T03:33:06;100821.25;;;15.82;92.71
64368;BME280;50692;53.314;-6.300;2023-05-08T03:35:52;100821.56;;;15.91;92.05
64368;BME280;50692;53.314;-6.300;2023-05-08T03:38:39;100811.41;;;15.96;91.73
64368;BME280;50692;53.314;-6.300;2023-05-08T03:41:25;100808.00;;;15.94;91.90
64368;BME280;50692;53.314;-6.300;2023-05-08T03:44:11;100806.91;;;15.96;91.86
64368;BME280;50692;53.314;-6.300;2023-05-08T03:46:59;100806.69;;;15.99;90.70
64368;BME280;50692;53.314;-6.300;2023-05-08T03:49:46;100805.84;;;15.99;90.83
64368;BME280;50692;53.314;-6.300;2023-05-08T03:52:32;100808.53;;;15.99;90.56
64368;BME280;50692;53.314;-6.300;2023-05-08T03:55:19;100806.56;;;16.01;90.72
64368;BME280;50692;53.314;-6.300;2023-05-08T03:58:23;100811.22;;;16.10;90.96
64368;BME280;50692;53.314;-6.300;2023-05-08T04:01:17;100816.06;;;16.05;90.92
64368;BME280;50692;53.314;-6.300;2023-05-08T04:07:22;100824.25;;;15.91;91.00
64368;BME280;50692;53.314;-6.300;2023-05-08T04:10:15;100811.00;;;15.89;91.09
64368;BME280;50692;53.314;-6.300;2023-05-08T04:13:08;100807.72;;;15.86;91.43
64368;BME280;50692;53.314;-6.300;2023-05-08T04:16:16;100803.75;;;15.91;90.99
64368;BME280;50692;53.314;-6.300;2023-05-08T04:19:01;100801.41;;;15.87;91.49
64368;BME280;50692;53.314;-6.300;2023-05-08T04:21:49;100808.13;;;15.92;91.96
64368;BME280;50692;53.314;-6.300;2023-05-08T04:24:39;100811.63;;;15.93;92.13
64368;BME280;50692;53.314;-6.300;2023-05-08T04:27:27;100803.75;;;15.91;92.34
64368;BME280;50692;53.314;-6.300;2023-05-08T04:30:14;100790.88;;;15.85;92.62
64368;BME280;50692;53.314;-6.300;2023-05-08T04:33:02;100790.31;;;15.93;92.90
64368;BME280;50692;53.314;-6.300;2023-05-08T04:35:49;100788.84;;;15.89;93.52
64368;BME280;50692;53.314;-6.300;2023-05-08T04:38:35;100790.53;;;15.90;93.42
64368;BME280;50692;53.314;-6.300;2023-05-08T04:41:22;100804.59;;;15.92;93.69
64368;BME280;50692;53.314;-6.300;2023-05-08T04:44:08;100766.94;;;15.72;93.70
64368;BME280;50692;53.314;-6.300;2023-05-08T04:46:54;100802.66;;;15.94;94.04
64368;BME280;50692;53.314;-6.300;2023-05-08T04:49:40;100808.28;;;16.02;93.52
64368;BME280;50692;53.314;-6.300;2023-05-08T04:52:26;100806.56;;;16.01;93.91
64368;BME280;50692;53.314;-6.300;2023-05-08T04:55:12;100813.50;;;16.03;93.72
64368;BME280;50692;53.314;-6.300;2023-05-08T04:57:57;100805.50;;;16.03;94.03
64368;BME280;50692;53.314;-6.300;2023-05-08T05:00:43;100805.28;;;16.06;93.66
64368;BME280;50692;53.314;-6.300;2023-05-08T05:03:29;100810.47;;;16.08;93.77
64368;BME280;50692;53.314;-6.300;2023-05-08T05:06:15;100808.06;;;16.05;93.46
64368;BME280;50692;53.314;-6.300;2023-05-08T05:09:01;100808.44;;;16.12;93.59
64368;BME280;50692;53.314;-6.300;2023-05-08T05:11:48;100810.03;;;16.14;93.36
64368;BME280;50692;53.314;-6.300;2023-05-08T05:14:33;100810.47;;;16.08;93.28
64368;BME280;50692;53.314;-6.300;2023-05-08T05:17:19;100813.78;;;16.12;93.54
64368;BME280;50692;53.314;-6.300;2023-05-08T05:20:06;100813.06;;;16.10;93.57
64368;BME280;50692;53.314;-6.300;2023-05-08T05:22:53;100819.69;;;16.04;93.71
64368;BME280;50692;53.314;-6.300;2023-05-08T05:25:39;100809.00;;;16.04;93.67
64368;BME280;50692;53.314;-6.300;2023-05-08T05:28:24;100812.03;;;15.99;93.81
64368;BME280;50692;53.314;-6.300;2023-05-08T05:31:10;100802.00;;;16.03;93.57
64368;BME280;50692;53.314;-6.300;2023-05-08T05:33:56;100807.53;;;16.00;93.61
64368;BME280;50692;53.314;-6.300;2023-05-08T05:36:42;100815.09;;;16.06;93.47
64368;BME280;50692;53.314;-6.300;2023-05-08T05:39:28;100815.94;;;16.06;93.23
64368;BME280;50692;53.314;-6.300;2023-05-08T05:42:14;100821.41;;;16.05;93.24
64368;BME280;50692;53.314;-6.300;2023-05-08T05:44:59;100832.56;;;16.10;92.73
64368;BME280;50692;53.314;-6.300;2023-05-08T05:47:46;100830.75;;;16.11;92.75
64368;BME280;50692;53.314;-6.300;2023-05-08T05:50:38;100836.94;;;16.11;92.46
64368;BME280;50692;53.314;-6.300;2023-05-08T05:53:24;100835.22;;;16.10;92.40
64368;BME280;50692;53.314;-6.300;2023-05-08T05:56:10;100841.31;;;16.12;92.40
64368;BME280;50692;53.314;-6.300;2023-05-08T05:58:56;100842.88;;;16.15;92.16
64368;BME280;50692;53.314;-6.300;2023-05-08T06:01:42;100838.38;;;16.15;92.01
64368;BME280;50692;53.314;-6.300;2023-05-08T06:04:27;100843.28;;;16.21;91.69
64368;BME280;50692;53.314;-6.300;2023-05-08T06:07:13;100835.81;;;16.26;91.27
64368;BME280;50692;53.314;-6.300;2023-05-08T06:09:59;100838.34;;;16.28;91.21
64368;BME280;50692;53.314;-6.300;2023-05-08T06:12:45;100845.03;;;16.34;90.88
64368;BME280;50692;53.314;-6.300;2023-05-08T06:15:31;100833.50;;;16.33;91.08
64368;BME280;50692;53.314;-6.300;2023-05-08T06:18:18;100835.22;;;16.34;91.10
64368;BME280;50692;53.314;-6.300;2023-05-08T06:21:04;100845.03;;;16.34;91.11
64368;BME280;50692;53.314;-6.300;2023-05-08T06:23:50;100845.91;;;16.34;90.84
64368;BME280;50692;53.314;-6.300;2023-05-08T06:26:35;100842.75;;;16.40;90.71
64368;BME280;50692;53.314;-6.300;2023-05-08T06:29:21;100839.16;;;16.76;88.17
64368;BME280;50692;53.314;-6.300;2023-05-08T06:32:07;100840.13;;;16.87;87.68
64368;BME280;50692;53.314;-6.300;2023-05-08T06:34:53;100838.81;;;16.92;87.14
64368;BME280;50692;53.314;-6.300;2023-05-08T06:37:39;100837.50;;;16.98;87.00
64368;BME280;50692;53.314;-6.300;2023-05-08T06:40:24;100830.81;;;17.03;86.95
64368;BME280;50692;53.314;-6.300;2023-05-08T06:43:11;100835.28;;;17.03;86.54
64368;BME280;50692;53.314;-6.300;2023-05-08T06:45:57;100833.38;;;17.05;86.54
64368;BME280;50692;53.314;-6.300;2023-05-08T06:48:44;100830.69;;;17.05;86.35
64368;BME280;50692;53.314;-6.300;2023-05-08T06:51:29;100837.72;;;17.06;86.27
64368;BME280;50692;53.314;-6.300;2023-05-08T06:54:15;100843.06;;;17.06;86.32
64368;BME280;50692;53.314;-6.300;2023-05-08T06:57:01;100864.81;;;17.13;86.19
64368;BME280;50692;53.314;-6.300;2023-05-08T06:59:47;100846.13;;;17.13;86.39
64368;BME280;50692;53.314;-6.300;2023-05-08T07:02:33;100845.28;;;17.12;86.25
64368;BME280;50692;53.314;-6.300;2023-05-08T07:05:20;100836.66;;;17.20;86.20
64368;BME280;50692;53.314;-6.300;2023-05-08T07:08:07;100839.69;;;17.26;85.87
64368;BME280;50692;53.314;-6.300;2023-05-08T07:10:53;100825.13;;;17.31;86.09
64368;BME280;50692;53.314;-6.300;2023-05-08T07:13:39;100828.63;;;17.31;86.06
64368;BME280;50692;53.314;-6.300;2023-05-08T07:16:26;100825.59;;;17.36;85.72
64368;BME280;50692;53.314;-6.300;2023-05-08T07:19:12;100838.84;;;17.37;85.45
64368;BME280;50692;53.314;-6.300;2023-05-08T07:21:58;100819.53;;;17.45;85.50
64368;BME280;50692;53.314;-6.300;2023-05-08T07:24:45;100828.25;;;17.47;85.72
64368;BME280;50692;53.314;-6.300;2023-05-08T07:27:31;100828.25;;;17.47;85.82
64368;BME280;50692;53.314;-6.300;2023-05-08T07:30:17;100814.53;;;17.52;85.64
64368;BME280;50692;53.314;-6.300;2023-05-08T07:33:03;100816.06;;;17.65;85.44
64368;BME280;50692;53.314;-6.300;2023-05-08T07:35:49;100818.38;;;17.70;85.38
64368;BME280;50692;53.314;-6.300;2023-05-08T07:38:35;100814.03;;;17.80;85.43
64368;BME280;50692;53.314;-6.300;2023-05-08T07:41:21;100812.81;;;17.84;85.09
64368;BME280;50692;53.314;-6.300;2023-05-08T07:44:07;100808.91;;;17.88;84.57
64368;BME280;50692;53.314;-6.300;2023-05-08T07:46:53;100812.16;;;17.92;84.44
64368;BME280;50692;53.314;-6.300;2023-05-08T07:49:38;100819.34;;;17.91;84.17
64368;BME280;50692;53.314;-6.300;2023-05-08T07:52:24;100821.03;;;17.92;83.78
64368;BME280;50692;53.314;-6.300;2023-05-08T07:55:10;100816.91;;;17.88;83.86
64368;BME280;50692;53.314;-6.300;2023-05-08T07:57:56;100830.84;;;18.03;83.52
64368;BME280;50692;53.314;-6.300;2023-05-08T08:00:44;100823.31;;;17.97;83.38
64368;BME280;50692;53.314;-6.300;2023-05-08T08:03:30;100838.38;;;18.09;83.06
64368;BME280;50692;53.314;-6.300;2023-05-08T08:06:15;100835.44;;;18.12;82.60
64368;BME280;50692;53.314;-6.300;2023-05-08T08:09:03;100809.75;;;18.21;82.37
64368;BME280;50692;53.314;-6.300;2023-05-08T08:11:48;100830.06;;;18.44;81.68
64368;BME280;50692;53.314;-6.300;2023-05-08T08:14:35;100840.16;;;18.41;82.46
64368;BME280;50692;53.314;-6.300;2023-05-08T08:17:21;100839.38;;;18.29;83.50
64368;BME280;50692;53.314;-6.300;2023-05-08T08:20:08;100842.44;;;18.25;83.02
64368;BME280;50692;53.314;-6.300;2023-05-08T08:22:54;100845.97;;;18.25;82.82
64368;BME280;50692;53.314;-6.300;2023-05-08T08:25:39;100849.13;;;18.30;82.36
64368;BME280;50692;53.314;-6.300;2023-05-08T08:28:25;100840.63;;;18.25;82.35
64368;BME280;50692;53.314;-6.300;2023-05-08T08:31:11;100842.41;;;18.36;82.22
64368;BME280;50692;53.314;-6.300;2023-05-08T08:33:57;100836.78;;;18.39;81.81
64368;BME280;50692;53.314;-6.300;2023-05-08T08:36:43;100843.50;;;18.33;81.09
64368;BME280;50692;53.314;-6.300;2023-05-08T08:39:31;100832.72;;;18.24;81.57
64368;BME280;50692;53.314;-6.300;2023-05-08T08:42:17;100838.44;;;18.30;81.68
64368;BME280;50692;53.314;-6.300;2023-05-08T08:45:03;100825.59;;;18.13;82.33
64368;BME280;50692;53.314;-6.300;2023-05-08T08:47:51;100837.84;;;18.15;82.95
64368;BME280;50692;53.314;-6.300;2023-05-08T08:50:41;100829.97;;;18.14;83.13
64368;BME280;50692;53.314;-6.300;2023-05-08T08:53:34;100835.75;;;18.19;82.26
64368;BME280;50692;53.314;-6.300;2023-05-08T08:56:22;100844.34;;;18.34;82.24
64368;BME280;50692;53.314;-6.300;2023-05-08T08:59:12;100834.31;;;18.47;81.96
64368;BME280;50692;53.314;-6.300;2023-05-08T09:02:05;100827.00;;;18.49;81.55
64368;BME280;50692;53.314;-6.300;2023-05-08T09:04:53;100846.78;;;18.58;81.11
64368;BME280;50692;53.314;-6.300;2023-05-08T09:07:39;100852.28;;;18.56;80.45
64368;BME280;50692;53.314;-6.300;2023-05-08T09:10:26;100844.75;;;18.50;80.40
64368;BME280;50692;53.314;-6.300;2023-05-08T09:13:12;100846.53;;;18.61;80.59
64368;BME280;50692;53.314;-6.300;2023-05-08T09:15:58;100839.06;;;18.76;80.43
64368;BME280;50692;53.314;-6.300;2023-05-08T09:18:44;100839.44;;;18.92;79.96
64368;BME280;50692;53.314;-6.300;2023-05-08T09:21:31;100831.09;;;18.85;78.24
64368;BME280;50692;53.314;-6.300;2023-05-08T09:24:17;100828.41;;;19.06;77.67
64368;BME280;50692;53.314;-6.300;2023-05-08T09:27:02;100825.56;;;19.08;76.71
64368;BME280;50692;53.314;-6.300;2023-05-08T09:30:09;100837.53;;;19.65;74.29
64368;BME280;50692;53.314;-6.300;2023-05-08T09:33:00;100831.34;;;19.74;73.95
64368;BME280;50692;53.314;-6.300;2023-05-08T09:35:47;100833.78;;;19.97;72.88
64368;BME280;50692;53.314;-6.300;2023-05-08T09:38:38;100847.59;;;19.42;75.15
64368;BME280;50692;53.314;-6.300;2023-05-08T09:41:25;100844.38;;;19.17;76.26
64368;BME280;50692;53.314;-6.300;2023-05-08T09:44:11;100837.84;;;19.10;76.92
64368;BME280;50692;53.314;-6.300;2023-05-08T09:47:13;100833.94;;;19.14;77.04
64368;BME280;50692;53.314;-6.300;2023-05-08T09:50:09;100846.59;;;19.12;77.33
64368;BME280;50692;53.314;-6.300;2023-05-08T09:52:55;100844.06;;;19.11;79.65
64368;BME280;50692;53.314;-6.300;2023-05-08T09:55:46;100855.84;;;18.99;81.45
64368;BME280;50692;53.314;-6.300;2023-05-08T09:58:40;100857.28;;;18.82;81.64
64368;BME280;50692;53.314;-6.300;2023-05-08T10:01:28;100856.16;;;18.63;82.64
64368;BME280;50692;53.314;-6.300;2023-05-08T10:04:15;100855.41;;;18.61;83.84
64368;BME280;50692;53.314;-6.300;2023-05-08T10:07:02;100849.81;;;18.64;83.06
64368;BME280;50692;53.314;-6.300;2023-05-08T10:10:04;100845.44;;;18.63;82.84
64368;BME280;50692;53.314;-6.300;2023-05-08T10:12:50;100838.34;;;18.74;82.72
64368;BME280;50692;53.314;-6.300;2023-05-08T10:15:41;100839.19;;;18.95;82.63
64368;BME280;50692;53.314;-6.300;2023-05-08T10:18:28;100832.66;;;19.18;81.43
64368;BME280;50692;53.314;-6.300;2023-05-08T10:21:17;100842.22;;;19.42;80.06
64368;BME280;50692;53.314;-6.300;2023-05-08T10:24:09;100836.63;;;19.55;78.61
64368;BME280;50692;53.314;-6.300;2023-05-08T10:27:15;100835.84;;;19.64;77.97
64368;BME280;50692;53.314;-6.300;2023-05-08T10:30:03;100839.53;;;19.73;77.61
64368;BME280;50692;53.314;-6.300;2023-05-08T10:32:50;100834.47;;;19.79;77.06
64368;BME280;50692;53.314;-6.300;2023-05-08T10:35:39;100837.03;;;19.81;76.41
64368;BME280;50692;53.314;-6.300;2023-05-08T10:38:26;100831.09;;;19.77;76.20
64368;BME280;50692;53.314;-6.300;2023-05-08T10:41:12;100836.84;;;19.63;75.96
64368;BME280;50692;53.314;-6.300;2023-05-08T10:43:58;100843.63;;;19.67;76.64
64368;BME280;50692;53.314;-6.300;2023-05-08T10:46:52;100836.31;;;19.88;76.90
64368;BME280;50692;53.314;-6.300;2023-05-08T10:53:01;100835.94;;;20.32;74.62
64368;BME280;50692;53.314;-6.300;2023-05-08T10:55:52;100851.34;;;20.40;74.48
64368;BME280;50692;53.314;-6.300;2023-05-08T10:58:39;100845.56;;;20.34;73.58
64368;BME280;50692;53.314;-6.300;2023-05-08T11:01:25;100841.31;;;20.32;74.01
64368;BME280;50692;53.314;-6.300;2023-05-08T11:04:21;100845.28;;;20.57;73.19
64368;BME280;50692;53.314;-6.300;2023-05-08T11:07:08;100836.59;;;20.92;72.31
64368;BME280;50692;53.314;-6.300;2023-05-08T11:09:53;100845.38;;;21.31;71.22
64368;BME280;50692;53.314;-6.300;2023-05-08T11:12:47;100840.25;;;21.48;70.15
64368;BME280;50692;53.314;-6.300;2023-05-08T11:15:36;100847.06;;;21.32;67.32
64368;BME280;50692;53.314;-6.300;2023-05-08T11:18:22;100856.91;;;21.14;68.42
64368;BME280;50692;53.314;-6.300;2023-05-08T11:21:18;100829.69;;;20.90;65.20
64368;BME280;50692;53.314;-6.300;2023-05-08T11:24:09;100844.91;;;20.99;63.77
64368;BME280;50692;53.314;-6.300;2023-05-08T11:26:55;100848.28;;;21.11;62.13
64368;BME280;50692;53.314;-6.300;2023-05-08T11:29:41;100848.56;;;21.07;60.15
64368;BME280;50692;53.314;-6.300;2023-05-08T11:35:47;100843.47;;;21.14;58.41
64368;BME280;50692;53.314;-6.300;2023-05-08T11:38:35;100839.00;;;21.32;58.50
64368;BME280;50692;53.314;-6.300;2023-05-08T11:41:22;100838.47;;;21.84;58.57
64368;BME280;50692;53.314;-6.300;2023-05-08T11:44:18;100838.75;;;22.62;57.13
64368;BME280;50692;53.314;-6.300;2023-05-08T11:47:05;100824.66;;;23.20;55.57
64368;BME280;50692;53.314;-6.300;2023-05-08T11:49:54;100828.00;;;23.49;52.72
64368;BME280;50692;53.314;-6.300;2023-05-08T11:52:40;100831.81;;;23.38;51.92
64368;BME280;50692;53.314;-6.300;2023-05-08T11:55:27;100827.69;;;23.17;51.08
64368;BME280;50692;53.314;-6.300;2023-05-08T11:58:14;100832.38;;;22.89;50.02
64368;BME280;50692;53.314;-6.300;2023-05-08T12:01:00;100837.53;;;22.57;51.11
64368;BME280;50692;53.314;-6.300;2023-05-08T12:03:46;100841.94;;;22.40;51.58
64368;BME280;50692;53.314;-6.300;2023-05-08T12:06:33;100828.28;;;22.59;52.09
64368;BME280;50692;53.314;-6.300;2023-05-08T12:09:19;100825.13;;;22.64;51.74
64368;BME280;50692;53.314;-6.300;2023-05-08T12:12:05;100827.69;;;22.47;52.73
64368;BME280;50692;53.314;-6.300;2023-05-08T12:14:51;100822.25;;;22.39;53.47
64368;BME280;50692;53.314;-6.300;2023-05-08T12:17:37;100820.94;;;22.43;54.41
64368;BME280;50692;53.314;-6.300;2023-05-08T12:20:24;100814.84;;;22.85;53.96
64368;BME280;50692;53.314;-6.300;2023-05-08T12:23:10;100801.19;;;23.47;51.62
64368;BME280;50692;53.314;-6.300;2023-05-08T12:26:00;100805.03;;;23.79;46.28
64368;BME280;50692;53.314;-6.300;2023-05-08T12:28:53;100805.13;;;24.44;46.41
64368;BME280;50692;53.314;-6.300;2023-05-08T12:31:40;100811.72;;;24.41;44.02
64368;BME280;50692;53.314;-6.300;2023-05-08T12:34:26;100801.06;;;24.56;44.06
64368;BME280;50692;53.314;-6.300;2023-05-08T12:37:22;100784.81;;;24.81;43.64
64368;BME280;50692;53.314;-6.300;2023-05-08T12:40:25;100782.25;;;24.87;42.89
64368;BME280;50692;53.314;-6.300;2023-05-08T12:43:11;100784.25;;;25.18;44.06
64368;BME280;50692;53.314;-6.300;2023-05-08T12:45:57;100787.91;;;25.33;43.90
64368;BME280;50692;53.314;-6.300;2023-05-08T12:48:43;100784.19;;;25.66;43.42
64368;BME280;50692;53.314;-6.300;2023-05-08T12:51:29;100790.38;;;25.74;42.90
64368;BME280;50692;53.314;-6.300;2023-05-08T12:54:16;100779.50;;;25.91;42.11
64368;BME280;50692;53.314;-6.300;2023-05-08T12:57:09;100793.84;;;26.14;40.93
64368;BME280;50692;53.314;-6.300;2023-05-08T13:00:14;100784.19;;;26.20;39.87
64368;BME280;50692;53.314;-6.300;2023-05-08T13:03:00;100787.53;;;25.99;41.61
64368;BME280;50692;53.314;-6.300;2023-05-08T13:05:46;100793.16;;;25.66;41.83
64368;BME280;50692;53.314;-6.300;2023-05-08T13:08:37;100792.84;;;25.22;42.76
64368;BME280;50692;53.314;-6.300;2023-05-08T13:11:32;100809.84;;;25.39;42.00
64368;BME280;50692;53.314;-6.300;2023-05-08T13:14:19;100804.84;;;25.58;41.34
64368;BME280;50692;53.314;-6.300;2023-05-08T13:17:04;100805.75;;;25.51;41.75
64368;BME280;50692;53.314;-6.300;2023-05-08T13:19:51;100764.41;;;24.62;41.88
64368;BME280;50692;53.314;-6.300;2023-05-08T13:22:36;100799.88;;;24.59;42.82
64368;BME280;50692;53.314;-6.300;2023-05-08T13:25:22;100796.00;;;24.29;43.93
64368;BME280;50692;53.314;-6.300;2023-05-08T13:28:08;100803.56;;;24.09;45.63
64368;BME280;50692;53.314;-6.300;2023-05-08T13:30:55;100794.91;;;23.89;46.55
64368;BME280;50692;53.314;-6.300;2023-05-08T13:33:41;100803.38;;;23.86;46.71
64368;BME280;50692;53.314;-6.300;2023-05-08T13:36:28;100803.75;;;23.57;47.40
64368;BME280;50692;53.314;-6.300;2023-05-08T13:39:14;100774.25;;;23.13;47.63
64368;BME280;50692;53.314;-6.300;2023-05-08T13:41:59;100783.97;;;23.06;47.94
64368;BME280;50692;53.314;-6.300;2023-05-08T13:44:45;100785.81;;;22.79;48.25
64368;BME280;50692;53.314;-6.300;2023-05-08T13:47:31;100764.78;;;22.83;48.76
64368;BME280;50692;53.314;-6.300;2023-05-08T13:50:17;100786.34;;;22.83;48.12
64368;BME280;50692;53.314;-6.300;2023-05-08T13:53:06;100810.19;;;22.95;48.23
64368;BME280;50692;53.314;-6.300;2023-05-08T13:55:53;100813.97;;;22.85;48.58
64368;BME280;50692;53.314;-6.300;2023-05-08T13:58:40;100811.44;;;22.83;49.61
64368;BME280;50692;53.314;-6.300;2023-05-08T14:01:26;100785.00;;;22.79;49.26
64368;BME280;50692;53.314;-6.300;2023-05-08T14:04:12;100785.03;;;22.87;48.59
64368;BME280;50692;53.314;-6.300;2023-05-08T14:06:58;100781.81;;;23.09;48.23
64368;BME280;50692;53.314;-6.300;2023-05-08T14:09:44;100788.03;;;23.44;47.82
64368;BME280;50692;53.314;-6.300;2023-05-08T14:12:32;100797.13;;;23.43;47.48
64368;BME280;50692;53.314;-6.300;2023-05-08T14:15:20;100792.28;;;23.55;47.30
64368;BME280;50692;53.314;-6.300;2023-05-08T14:18:07;100787.53;;;23.49;48.18
64368;BME280;50692;53.314;-6.300;2023-05-08T14:20:53;100774.53;;;23.36;48.05
64368;BME280;50692;53.314;-6.300;2023-05-08T14:23:39;100783.38;;;23.20;48.69
64368;BME280;50692;53.314;-6.300;2023-05-08T14:26:25;100790.41;;;23.13;49.17
64368;BME280;50692;53.314;-6.300;2023-05-08T14:29:11;100800.16;;;23.06;49.72
64368;BME280;50692;53.314;-6.300;2023-05-08T14:31:57;100788.69;;;23.04;49.05
64368;BME280;50692;53.314;-6.300;2023-05-08T14:34:43;100804.41;;;22.90;48.39
64368;BME280;50692;53.314;-6.300;2023-05-08T14:37:29;100753.03;;;22.58;47.18
64368;BME280;50692;53.314;-6.300;2023-05-08T14:40:15;100796.63;;;23.05;47.96
64368;BME280;50692;53.314;-6.300;2023-05-08T14:43:01;100774.03;;;23.40;47.88
64368;BME280;50692;53.314;-6.300;2023-05-08T14:45:47;100772.75;;;23.61;46.63
64368;BME280;50692;53.314;-6.300;2023-05-08T14:48:34;100784.81;;;23.91;46.48
64368;BME280;50692;53.314;-6.300;2023-05-08T14:51:20;100771.88;;;24.44;45.11
64368;BME280;50692;53.314;-6.300;2023-05-08T14:54:06;100769.28;;;24.75;42.86
64368;BME280;50692;53.314;-6.300;2023-05-08T14:56:52;100758.91;;;25.11;42.33